sensor_id;sensor_type;location;lat;lon;timestamp;P1;durP1;ratioP1;P2;durP2;ratioP2
12715;SDS011;6422;49.938;9.124;2024-03-02T00:01:10;5.47;;;2.07;;
12715;SDS011;6422;49.938;9.124;2024-03-02T00:03:36;5.37;;;1.97;;
12715;SDS011;6422;49.938;9.124;2024-03-02T00:06:01;3.43;;;2.00;;
12715;SDS011;6422;49.938;9.124;2024-03-02T00:08:27;3.97;;;2.60;;
12715;SDS011;6422;49.938;9.124;2024-03-02T00:10:53;27.87;;;3.07;;
12715;SDS011;6422;49.938;9.124;2024-03-02T00:13:21;2.37;;;1.70;;
12715;SDS011;6422;49.938;9.124;2024-03-02T00:15:48;5.20;;;2.03;;
12715;SDS011;6422;49.938;9.124;2024-03-02T00:18:18;4.20;;;2.07;;
12715;SDS011;6422;49.938;9.124;2024-03-02T00:20:43;5.83;;;2.40;;
12715;SDS011;6422;49.938;9.124;2024-03-02T00:23:09;2.10;;;1.30;;
12715;SDS011;6422;49.938;9.124;2024-03-02T00:28:04;7.40;;;2.20;;
12715;SDS011;6422;49.938;9.124;2024-03-02T00:33:10;3.10;;;2.07;;
12715;SDS011;6422;49.938;9.124;2024-03-02T00:35:35;4.30;;;2.60;;
12715;SDS011;6422;49.938;9.124;2024-03-02T00:38:04;3.45;;;1.95;;
12715;SDS011;6422;49.938;9.124;2024-03-02T00:40:29;6.30;;;2.30;;
12715;SDS011;6422;49.938;9.124;2024-03-02T00:42:54;3.77;;;1.90;;
12715;SDS011;6422;49.938;9.124;2024-03-02T00:45:20;2.43;;;1.90;;
12715;SDS011;6422;49.938;9.124;2024-03-02T00:47:45;6.18;;;2.70;;
12715;SDS011;6422;49.938;9.124;2024-03-02T00:50:10;11.57;;;2.33;;
12715;SDS011;6422;49.938;9.124;2024-03-02T00:52:37;5.60;;;3.17;;
12715;SDS011;6422;49.938;9.124;2024-03-02T00:55:02;4.32;;;2.67;;
12715;SDS011;6422;49.938;9.124;2024-03-02T00:57:30;4.70;;;2.50;;
12715;SDS011;6422;49.938;9.124;2024-03-02T00:59:59;5.07;;;1.70;;
12715;SDS011;6422;49.938;9.124;2024-03-02T01:02:24;4.00;;;2.42;;
12715;SDS011;6422;49.938;9.124;2024-03-02T01:04:49;2.97;;;2.03;;
12715;SDS011;6422;49.938;9.124;2024-03-02T01:07:14;5.20;;;2.50;;
12715;SDS011;6422;49.938;9.124;2024-03-02T01:09:40;7.60;;;3.37;;
12715;SDS011;6422;49.938;9.124;2024-03-02T01:12:06;4.60;;;3.30;;
12715;SDS011;6422;49.938;9.124;2024-03-02T01:14:31;7.80;;;3.60;;
12715;SDS011;6422;49.938;9.124;2024-03-02T01:16:56;8.87;;;3.57;;
12715;SDS011;6422;49.938;9.124;2024-03-02T01:19:22;8.17;;;3.23;;
12715;SDS011;6422;49.938;9.124;2024-03-02T01:21:47;5.60;;;3.17;;
12715;SDS011;6422;49.938;9.124;2024-03-02T01:24:12;7.10;;;3.30;;
12715;SDS011;6422;49.938;9.124;2024-03-02T01:26:38;6.90;;;3.53;;
12715;SDS011;6422;49.938;9.124;2024-03-02T01:29:03;7.73;;;3.87;;
12715;SDS011;6422;49.938;9.124;2024-03-02T01:31:28;7.43;;;3.90;;
12715;SDS011;6422;49.938;9.124;2024-03-02T01:33:53;6.27;;;3.00;;
12715;SDS011;6422;49.938;9.124;2024-03-02T01:36:19;4.80;;;2.93;;
12715;SDS011;6422;49.938;9.124;2024-03-02T01:38:44;7.50;;;3.00;;
12715;SDS011;6422;49.938;9.124;2024-03-02T01:41:09;16.03;;;3.47;;
12715;SDS011;6422;49.938;9.124;2024-03-02T01:43:34;7.07;;;3.37;;
12715;SDS011;6422;49.938;9.124;2024-03-02T01:45:59;6.70;;;3.10;;
12715;SDS011;6422;49.938;9.124;2024-03-02T01:48:25;5.47;;;2.97;;
12715;SDS011;6422;49.938;9.124;2024-03-02T01:50:50;4.87;;;2.60;;
12715;SDS011;6422;49.938;9.124;2024-03-02T01:53:15;7.30;;;2.87;;
12715;SDS011;6422;49.938;9.124;2024-03-02T01:55:40;17.43;;;4.23;;
12715;SDS011;6422;49.938;9.124;2024-03-02T01:58:06;4.73;;;2.60;;
12715;SDS011;6422;49.938;9.124;2024-03-02T02:00:31;5.40;;;3.60;;
12715;SDS011;6422;49.938;9.124;2024-03-02T02:02:57;6.10;;;3.43;;
12715;SDS011;6422;49.938;9.124;2024-03-02T02:05:22;7.53;;;3.07;;
12715;SDS011;6422;49.938;9.124;2024-03-02T02:07:48;15.90;;;4.77;;
12715;SDS011;6422;49.938;9.124;2024-03-02T02:10:13;5.17;;;3.23;;
12715;SDS011;6422;49.938;9.124;2024-03-02T02:12:38;5.40;;;2.27;;
12715;SDS011;6422;49.938;9.124;2024-03-02T02:17:47;8.63;;;4.87;;
12715;SDS011;6422;49.938;9.124;2024-03-02T02:20:13;8.85;;;3.10;;
12715;SDS011;6422;49.938;9.124;2024-03-02T02:22:38;5.03;;;3.10;;
12715;SDS011;6422;49.938;9.124;2024-03-02T02:25:03;8.00;;;3.75;;
12715;SDS011;6422;49.938;9.124;2024-03-02T02:27:29;5.10;;;2.93;;
12715;SDS011;6422;49.938;9.124;2024-03-02T02:29:55;8.97;;;4.87;;
12715;SDS011;6422;49.938;9.124;2024-03-02T02:32:21;13.27;;;4.33;;
12715;SDS011;6422;49.938;9.124;2024-03-02T02:34:46;11.93;;;3.10;;
12715;SDS011;6422;49.938;9.124;2024-03-02T02:37:11;5.97;;;3.78;;
12715;SDS011;6422;49.938;9.124;2024-03-02T02:39:36;5.70;;;3.60;;
12715;SDS011;6422;49.938;9.124;2024-03-02T02:42:01;9.73;;;4.33;;
12715;SDS011;6422;49.938;9.124;2024-03-02T02:44:27;9.33;;;4.27;;
12715;SDS011;6422;49.938;9.124;2024-03-02T02:46:53;9.20;;;4.67;;
12715;SDS011;6422;49.938;9.124;2024-03-02T02:49:18;6.95;;;3.97;;
12715;SDS011;6422;49.938;9.124;2024-03-02T02:51:43;13.15;;;4.38;;
12715;SDS011;6422;49.938;9.124;2024-03-02T02:54:08;7.20;;;4.35;;
12715;SDS011;6422;49.938;9.124;2024-03-02T02:56:33;9.93;;;4.10;;
12715;SDS011;6422;49.938;9.124;2024-03-02T02:58:58;8.38;;;3.92;;
12715;SDS011;6422;49.938;9.124;2024-03-02T03:01:24;11.43;;;5.17;;
12715;SDS011;6422;49.938;9.124;2024-03-02T03:03:49;8.57;;;4.97;;
12715;SDS011;6422;49.938;9.124;2024-03-02T03:06:14;9.27;;;4.68;;
12715;SDS011;6422;49.938;9.124;2024-03-02T03:08:39;10.73;;;4.60;;
12715;SDS011;6422;49.938;9.124;2024-03-02T03:11:04;8.17;;;4.40;;
12715;SDS011;6422;49.938;9.124;2024-03-02T03:13:30;15.50;;;5.17;;
12715;SDS011;6422;49.938;9.124;2024-03-02T03:15:55;9.93;;;5.10;;
12715;SDS011;6422;49.938;9.124;2024-03-02T03:18:20;7.22;;;3.63;;
12715;SDS011;6422;49.938;9.124;2024-03-02T03:20:46;11.57;;;6.50;;
12715;SDS011;6422;49.938;9.124;2024-03-02T03:23:11;7.53;;;4.00;;
12715;SDS011;6422;49.938;9.124;2024-03-02T03:25:41;7.23;;;3.83;;
12715;SDS011;6422;49.938;9.124;2024-03-02T03:28:07;5.83;;;3.30;;
12715;SDS011;6422;49.938;9.124;2024-03-02T03:30:32;5.57;;;3.47;;
12715;SDS011;6422;49.938;9.124;2024-03-02T03:32:57;8.38;;;4.70;;
12715;SDS011;6422;49.938;9.124;2024-03-02T03:35:22;5.50;;;3.47;;
12715;SDS011;6422;49.938;9.124;2024-03-02T03:37:47;7.27;;;4.40;;
12715;SDS011;6422;49.938;9.124;2024-03-02T03:40:12;6.95;;;4.07;;
12715;SDS011;6422;49.938;9.124;2024-03-02T03:42:39;18.33;;;4.40;;
12715;SDS011;6422;49.938;9.124;2024-03-02T03:45:04;11.90;;;5.30;;
12715;SDS011;6422;49.938;9.124;2024-03-02T03:47:32;10.37;;;4.80;;
12715;SDS011;6422;49.938;9.124;2024-03-02T03:49:58;10.60;;;5.03;;
12715;SDS011;6422;49.938;9.124;2024-03-02T03:52:23;4.83;;;3.37;;
12715;SDS011;6422;49.938;9.124;2024-03-02T03:54:48;6.50;;;4.37;;
12715;SDS011;6422;49.938;9.124;2024-03-02T03:57:13;8.75;;;4.40;;
12715;SDS011;6422;49.938;9.124;2024-03-02T03:59:38;6.55;;;4.32;;
12715;SDS011;6422;49.938;9.124;2024-03-02T04:02:04;8.95;;;5.15;;
12715;SDS011;6422;49.938;9.124;2024-03-02T04:04:29;5.57;;;3.27;;
12715;SDS011;6422;49.938;9.124;2024-03-02T04:06:54;14.40;;;4.80;;
12715;SDS011;6422;49.938;9.124;2024-03-02T04:09:20;15.13;;;5.60;;
12715;SDS011;6422;49.938;9.124;2024-03-02T04:11:45;6.63;;;4.40;;
12715;SDS011;6422;49.938;9.124;2024-03-02T04:14:10;11.20;;;4.60;;
12715;SDS011;6422;49.938;9.124;2024-03-02T04:16:35;12.87;;;4.67;;
12715;SDS011;6422;49.938;9.124;2024-03-02T04:19:00;8.17;;;4.10;;
12715;SDS011;6422;49.938;9.124;2024-03-02T04:21:25;7.60;;;3.63;;
12715;SDS011;6422;49.938;9.124;2024-03-02T04:23:51;5.45;;;3.65;;
12715;SDS011;6422;49.938;9.124;2024-03-02T04:26:16;9.27;;;3.63;;
12715;SDS011;6422;49.938;9.124;2024-03-02T04:28:46;5.70;;;3.43;;
12715;SDS011;6422;49.938;9.124;2024-03-02T04:31:12;7.75;;;5.05;;
12715;SDS011;6422;49.938;9.124;2024-03-02T04:33:37;4.03;;;3.28;;
12715;SDS011;6422;49.938;9.124;2024-03-02T04:36:02;10.75;;;4.53;;
12715;SDS011;6422;49.938;9.124;2024-03-02T04:38:27;7.00;;;3.10;;
12715;SDS011;6422;49.938;9.124;2024-03-02T04:40:53;6.87;;;3.53;;
12715;SDS011;6422;49.938;9.124;2024-03-02T04:43:19;8.55;;;3.58;;
12715;SDS011;6422;49.938;9.124;2024-03-02T04:45:44;5.47;;;3.03;;
12715;SDS011;6422;49.938;9.124;2024-03-02T04:48:09;9.13;;;4.03;;
12715;SDS011;6422;49.938;9.124;2024-03-02T04:50:34;6.00;;;2.90;;
12715;SDS011;6422;49.938;9.124;2024-03-02T04:52:59;6.75;;;4.45;;
12715;SDS011;6422;49.938;9.124;2024-03-02T04:55:24;7.95;;;4.90;;
12715;SDS011;6422;49.938;9.124;2024-03-02T04:58:00;10.03;;;4.90;;
12715;SDS011;6422;49.938;9.124;2024-03-02T05:00:25;7.47;;;4.33;;
12715;SDS011;6422;49.938;9.124;2024-03-02T05:02:50;11.32;;;4.35;;
12715;SDS011;6422;49.938;9.124;2024-03-02T05:05:16;9.53;;;4.77;;
12715;SDS011;6422;49.938;9.124;2024-03-02T05:07:41;9.80;;;5.60;;
12715;SDS011;6422;49.938;9.124;2024-03-02T05:10:09;9.33;;;5.03;;
12715;SDS011;6422;49.938;9.124;2024-03-02T05:12:34;8.53;;;4.13;;
12715;SDS011;6422;49.938;9.124;2024-03-02T05:15:20;7.87;;;4.53;;
12715;SDS011;6422;49.938;9.124;2024-03-02T05:17:46;6.73;;;3.73;;
12715;SDS011;6422;49.938;9.124;2024-03-02T05:20:11;9.38;;;5.38;;
12715;SDS011;6422;49.938;9.124;2024-03-02T05:22:37;9.67;;;4.10;;
12715;SDS011;6422;49.938;9.124;2024-03-02T05:25:02;9.50;;;5.47;;
12715;SDS011;6422;49.938;9.124;2024-03-02T05:27:28;6.73;;;4.17;;
12715;SDS011;6422;49.938;9.124;2024-03-02T05:29:53;7.60;;;3.53;;
12715;SDS011;6422;49.938;9.124;2024-03-02T05:32:18;13.93;;;5.53;;
12715;SDS011;6422;49.938;9.124;2024-03-02T05:34:43;7.72;;;3.67;;
12715;SDS011;6422;49.938;9.124;2024-03-02T05:37:08;5.65;;;3.80;;
12715;SDS011;6422;49.938;9.124;2024-03-02T05:39:33;7.68;;;4.03;;
12715;SDS011;6422;49.938;9.124;2024-03-02T05:41:59;12.63;;;4.07;;
12715;SDS011;6422;49.938;9.124;2024-03-02T05:44:24;10.40;;;4.40;;
12715;SDS011;6422;49.938;9.124;2024-03-02T05:46:49;6.93;;;3.97;;
12715;SDS011;6422;49.938;9.124;2024-03-02T05:49:14;6.10;;;3.83;;
12715;SDS011;6422;49.938;9.124;2024-03-02T05:51:39;9.10;;;4.17;;
12715;SDS011;6422;49.938;9.124;2024-03-02T05:54:04;8.88;;;5.13;;
12715;SDS011;6422;49.938;9.124;2024-03-02T05:56:30;13.40;;;5.30;;
12715;SDS011;6422;49.938;9.124;2024-03-02T05:58:55;6.47;;;4.22;;
12715;SDS011;6422;49.938;9.124;2024-03-02T06:01:42;11.40;;;6.03;;
12715;SDS011;6422;49.938;9.124;2024-03-02T06:04:07;5.37;;;3.13;;
12715;SDS011;6422;49.938;9.124;2024-03-02T06:06:33;7.65;;;4.05;;
12715;SDS011;6422;49.938;9.124;2024-03-02T06:08:59;12.47;;;5.37;;
12715;SDS011;6422;49.938;9.124;2024-03-02T06:11:24;10.67;;;4.50;;
12715;SDS011;6422;49.938;9.124;2024-03-02T06:13:49;10.13;;;5.03;;
12715;SDS011;6422;49.938;9.124;2024-03-02T06:16:15;9.95;;;4.97;;
12715;SDS011;6422;49.938;9.124;2024-03-02T06:18:40;11.63;;;5.10;;
12715;SDS011;6422;49.938;9.124;2024-03-02T06:21:05;8.75;;;3.88;;
12715;SDS011;6422;49.938;9.124;2024-03-02T06:23:30;8.23;;;5.20;;
12715;SDS011;6422;49.938;9.124;2024-03-02T06:25:55;12.03;;;5.67;;
12715;SDS011;6422;49.938;9.124;2024-03-02T06:28:20;7.13;;;3.92;;
12715;SDS011;6422;49.938;9.124;2024-03-02T06:30:45;11.05;;;3.55;;
12715;SDS011;6422;49.938;9.124;2024-03-02T06:33:11;8.07;;;4.43;;
12715;SDS011;6422;49.938;9.124;2024-03-02T06:35:36;11.17;;;4.27;;
12715;SDS011;6422;49.938;9.124;2024-03-02T06:38:01;6.83;;;3.90;;
12715;SDS011;6422;49.938;9.124;2024-03-02T06:40:26;7.43;;;2.90;;
12715;SDS011;6422;49.938;9.124;2024-03-02T06:42:51;12.27;;;5.00;;
12715;SDS011;6422;49.938;9.124;2024-03-02T06:45:17;9.57;;;4.07;;
12715;SDS011;6422;49.938;9.124;2024-03-02T06:47:42;4.83;;;2.70;;
12715;SDS011;6422;49.938;9.124;2024-03-02T06:50:07;11.37;;;5.17;;
12715;SDS011;6422;49.938;9.124;2024-03-02T06:52:33;16.10;;;4.30;;
12715;SDS011;6422;49.938;9.124;2024-03-02T06:54:58;7.53;;;4.07;;
12715;SDS011;6422;49.938;9.124;2024-03-02T06:57:23;6.90;;;3.40;;
12715;SDS011;6422;49.938;9.124;2024-03-02T06:59:49;5.57;;;3.93;;
12715;SDS011;6422;49.938;9.124;2024-03-02T07:02:16;10.33;;;4.40;;
12715;SDS011;6422;49.938;9.124;2024-03-02T07:04:41;10.00;;;4.60;;
12715;SDS011;6422;49.938;9.124;2024-03-02T07:07:06;5.90;;;3.53;;
12715;SDS011;6422;49.938;9.124;2024-03-02T07:09:32;5.17;;;3.17;;
12715;SDS011;6422;49.938;9.124;2024-03-02T07:11:57;6.47;;;3.90;;
12715;SDS011;6422;49.938;9.124;2024-03-02T07:14:22;7.50;;;4.00;;
12715;SDS011;6422;49.938;9.124;2024-03-02T07:17:07;8.30;;;4.07;;
12715;SDS011;6422;49.938;9.124;2024-03-02T07:19:32;10.48;;;4.60;;
12715;SDS011;6422;49.938;9.124;2024-03-02T07:21:57;8.43;;;4.45;;
12715;SDS011;6422;49.938;9.124;2024-03-02T07:24:22;6.80;;;4.25;;
12715;SDS011;6422;49.938;9.124;2024-03-02T07:26:48;5.28;;;3.33;;
12715;SDS011;6422;49.938;9.124;2024-03-02T07:29:13;8.10;;;3.53;;
12715;SDS011;6422;49.938;9.124;2024-03-02T07:31:38;5.82;;;3.63;;
12715;SDS011;6422;49.938;9.124;2024-03-02T07:34:03;4.37;;;2.33;;
12715;SDS011;6422;49.938;9.124;2024-03-02T07:36:28;7.82;;;3.95;;
12715;SDS011;6422;49.938;9.124;2024-03-02T07:38:53;5.73;;;3.20;;
12715;SDS011;6422;49.938;9.124;2024-03-02T07:41:19;8.47;;;4.20;;
12715;SDS011;6422;49.938;9.124;2024-03-02T07:43:44;5.93;;;3.87;;
12715;SDS011;6422;49.938;9.124;2024-03-02T07:46:09;12.55;;;5.63;;
12715;SDS011;6422;49.938;9.124;2024-03-02T07:48:35;6.90;;;4.50;;
12715;SDS011;6422;49.938;9.124;2024-03-02T07:51:00;7.53;;;4.50;;
12715;SDS011;6422;49.938;9.124;2024-03-02T07:53:27;11.10;;;3.70;;
12715;SDS011;6422;49.938;9.124;2024-03-02T07:55:52;10.33;;;4.10;;
12715;SDS011;6422;49.938;9.124;2024-03-02T07:58:17;7.70;;;4.85;;
12715;SDS011;6422;49.938;9.124;2024-03-02T08:00:44;6.63;;;4.00;;
12715;SDS011;6422;49.938;9.124;2024-03-02T08:03:09;15.10;;;3.73;;
12715;SDS011;6422;49.938;9.124;2024-03-02T08:05:36;5.73;;;3.07;;
12715;SDS011;6422;49.938;9.124;2024-03-02T08:08:01;8.50;;;4.60;;
12715;SDS011;6422;49.938;9.124;2024-03-02T08:10:27;9.67;;;3.10;;
12715;SDS011;6422;49.938;9.124;2024-03-02T08:12:52;7.15;;;4.18;;
12715;SDS011;6422;49.938;9.124;2024-03-02T08:15:17;8.05;;;4.07;;
12715;SDS011;6422;49.938;9.124;2024-03-02T08:17:42;8.88;;;5.00;;
12715;SDS011;6422;49.938;9.124;2024-03-02T08:20:13;5.87;;;4.40;;
12715;SDS011;6422;49.938;9.124;2024-03-02T08:22:38;9.43;;;4.10;;
12715;SDS011;6422;49.938;9.124;2024-03-02T08:25:03;6.63;;;3.40;;
12715;SDS011;6422;49.938;9.124;2024-03-02T08:27:29;7.83;;;4.00;;
12715;SDS011;6422;49.938;9.124;2024-03-02T08:29:54;7.75;;;4.55;;
12715;SDS011;6422;49.938;9.124;2024-03-02T08:32:19;10.75;;;5.25;;
12715;SDS011;6422;49.938;9.124;2024-03-02T08:34:44;7.47;;;4.03;;
12715;SDS011;6422;49.938;9.124;2024-03-02T08:37:09;7.35;;;4.72;;
12715;SDS011;6422;49.938;9.124;2024-03-02T08:39:34;6.05;;;3.97;;
12715;SDS011;6422;49.938;9.124;2024-03-02T08:42:00;6.15;;;4.35;;
12715;SDS011;6422;49.938;9.124;2024-03-02T08:44:25;7.30;;;4.50;;
12715;SDS011;6422;49.938;9.124;2024-03-02T08:46:50;8.17;;;4.50;;
12715;SDS011;6422;49.938;9.124;2024-03-02T08:49:15;8.00;;;4.18;;
12715;SDS011;6422;49.938;9.124;2024-03-02T08:51:40;11.85;;;4.88;;
12715;SDS011;6422;49.938;9.124;2024-03-02T08:54:06;6.22;;;2.50;;
12715;SDS011;6422;49.938;9.124;2024-03-02T08:56:31;5.10;;;3.90;;
12715;SDS011;6422;49.938;9.124;2024-03-02T08:58:56;5.27;;;3.17;;
12715;SDS011;6422;49.938;9.124;2024-03-02T09:01:21;8.20;;;4.53;;
12715;SDS011;6422;49.938;9.124;2024-03-02T09:03:46;7.20;;;3.50;;
12715;SDS011;6422;49.938;9.124;2024-03-02T09:06:12;5.80;;;3.93;;
12715;SDS011;6422;49.938;9.124;2024-03-02T09:08:38;7.00;;;4.13;;
12715;SDS011;6422;49.938;9.124;2024-03-02T09:11:04;6.70;;;3.35;;
12715;SDS011;6422;49.938;9.124;2024-03-02T09:13:29;6.23;;;3.00;;
12715;SDS011;6422;49.938;9.124;2024-03-02T09:15:54;5.13;;;4.13;;
12715;SDS011;6422;49.938;9.124;2024-03-02T09:18:20;6.33;;;3.10;;
12715;SDS011;6422;49.938;9.124;2024-03-02T09:20:45;6.45;;;3.67;;
12715;SDS011;6422;49.938;9.124;2024-03-02T09:23:10;7.30;;;3.30;;
12715;SDS011;6422;49.938;9.124;2024-03-02T09:25:36;5.10;;;3.37;;
12715;SDS011;6422;49.938;9.124;2024-03-02T09:28:02;11.17;;;3.30;;
12715;SDS011;6422;49.938;9.124;2024-03-02T09:30:27;11.20;;;3.70;;
12715;SDS011;6422;49.938;9.124;2024-03-02T09:32:53;6.93;;;3.83;;
12715;SDS011;6422;49.938;9.124;2024-03-02T09:35:18;9.13;;;3.80;;
12715;SDS011;6422;49.938;9.124;2024-03-02T09:37:43;3.73;;;2.93;;
12715;SDS011;6422;49.938;9.124;2024-03-02T09:40:08;5.00;;;2.80;;
12715;SDS011;6422;49.938;9.124;2024-03-02T09:42:34;6.13;;;3.40;;
12715;SDS011;6422;49.938;9.124;2024-03-02T09:44:59;6.67;;;3.13;;
12715;SDS011;6422;49.938;9.124;2024-03-02T09:47:25;7.70;;;3.37;;
12715;SDS011;6422;49.938;9.124;2024-03-02T09:49:50;4.53;;;2.50;;
12715;SDS011;6422;49.938;9.124;2024-03-02T09:52:15;14.33;;;3.10;;
12715;SDS011;6422;49.938;9.124;2024-03-02T09:54:41;7.03;;;2.70;;
12715;SDS011;6422;49.938;9.124;2024-03-02T09:57:06;4.50;;;2.35;;
12715;SDS011;6422;49.938;9.124;2024-03-02T09:59:31;5.30;;;2.88;;
12715;SDS011;6422;49.938;9.124;2024-03-02T10:02:00;3.57;;;2.23;;
12715;SDS011;6422;49.938;9.124;2024-03-02T10:04:26;3.23;;;2.23;;
12715;SDS011;6422;49.938;9.124;2024-03-02T10:06:51;7.43;;;2.70;;
12715;SDS011;6422;49.938;9.124;2024-03-02T10:09:29;6.10;;;4.13;;
12715;SDS011;6422;49.938;9.124;2024-03-02T10:12:01;5.53;;;2.57;;
12715;SDS011;6422;49.938;9.124;2024-03-02T10:14:28;5.23;;;2.37;;
12715;SDS011;6422;49.938;9.124;2024-03-02T10:16:53;3.22;;;2.33;;
12715;SDS011;6422;49.938;9.124;2024-03-02T10:21:47;4.03;;;2.60;;
12715;SDS011;6422;49.938;9.124;2024-03-02T10:24:14;6.00;;;2.70;;
12715;SDS011;6422;49.938;9.124;2024-03-02T10:26:40;6.40;;;2.70;;
12715;SDS011;6422;49.938;9.124;2024-03-02T10:29:07;5.13;;;2.40;;
12715;SDS011;6422;49.938;9.124;2024-03-02T10:31:32;2.93;;;2.20;;
12715;SDS011;6422;49.938;9.124;2024-03-02T10:33:57;5.90;;;2.70;;
12715;SDS011;6422;49.938;9.124;2024-03-02T10:36:23;3.83;;;2.23;;
12715;SDS011;6422;49.938;9.124;2024-03-02T10:38:48;3.50;;;1.83;;
12715;SDS011;6422;49.938;9.124;2024-03-02T10:41:19;3.27;;;1.57;;
12715;SDS011;6422;49.938;9.124;2024-03-02T10:43:45;4.00;;;2.10;;
12715;SDS011;6422;49.938;9.124;2024-03-02T10:46:11;4.33;;;2.60;;
12715;SDS011;6422;49.938;9.124;2024-03-02T10:48:36;4.23;;;2.17;;
12715;SDS011;6422;49.938;9.124;2024-03-02T10:51:01;4.03;;;1.97;;
12715;SDS011;6422;49.938;9.124;2024-03-02T10:53:27;3.90;;;2.33;;
12715;SDS011;6422;49.938;9.124;2024-03-02T10:55:53;5.23;;;2.53;;
12715;SDS011;6422;49.938;9.124;2024-03-02T10:58:22;5.93;;;2.43;;
12715;SDS011;6422;49.938;9.124;2024-03-02T11:00:48;2.40;;;1.53;;
12715;SDS011;6422;49.938;9.124;2024-03-02T11:03:14;6.40;;;2.10;;
12715;SDS011;6422;49.938;9.124;2024-03-02T11:05:40;4.50;;;1.70;;
12715;SDS011;6422;49.938;9.124;2024-03-02T11:08:06;3.30;;;2.00;;
12715;SDS011;6422;49.938;9.124;2024-03-02T11:10:36;2.80;;;1.60;;
12715;SDS011;6422;49.938;9.124;2024-03-02T11:13:02;2.70;;;1.60;;
12715;SDS011;6422;49.938;9.124;2024-03-02T11:15:30;3.50;;;2.00;;
12715;SDS011;6422;49.938;9.124;2024-03-02T11:17:56;4.67;;;2.13;;
12715;SDS011;6422;49.938;9.124;2024-03-02T11:20:22;3.73;;;2.03;;
12715;SDS011;6422;49.938;9.124;2024-03-02T11:22:47;3.50;;;1.30;;
12715;SDS011;6422;49.938;9.124;2024-03-02T11:25:22;3.20;;;1.90;;
12715;SDS011;6422;49.938;9.124;2024-03-02T11:30:56;2.27;;;1.10;;
12715;SDS011;6422;49.938;9.124;2024-03-02T11:35:36;1.80;;;1.20;;
12715;SDS011;6422;49.938;9.124;2024-03-02T11:38:05;2.40;;;1.30;;
12715;SDS011;6422;49.938;9.124;2024-03-02T11:40:31;6.53;;;1.57;;
12715;SDS011;6422;49.938;9.124;2024-03-02T11:42:56;1.50;;;1.00;;
12715;SDS011;6422;49.938;9.124;2024-03-02T11:45:22;2.23;;;1.40;;
12715;SDS011;6422;49.938;9.124;2024-03-02T11:47:50;2.83;;;1.73;;
12715;SDS011;6422;49.938;9.124;2024-03-02T11:50:15;2.70;;;1.43;;
12715;SDS011;6422;49.938;9.124;2024-03-02T11:52:40;2.07;;;1.50;;
12715;SDS011;6422;49.938;9.124;2024-03-02T11:55:06;2.50;;;1.50;;
12715;SDS011;6422;49.938;9.124;2024-03-02T11:57:32;2.53;;;1.30;;
12715;SDS011;6422;49.938;9.124;2024-03-02T11:59:58;1.83;;;1.13;;
12715;SDS011;6422;49.938;9.124;2024-03-02T12:02:24;3.07;;;1.50;;
12715;SDS011;6422;49.938;9.124;2024-03-02T12:04:49;1.65;;;1.25;;
12715;SDS011;6422;49.938;9.124;2024-03-02T12:07:18;2.40;;;1.67;;
12715;SDS011;6422;49.938;9.124;2024-03-02T12:09:45;3.37;;;1.50;;
12715;SDS011;6422;49.938;9.124;2024-03-02T12:12:10;2.40;;;1.47;;
12715;SDS011;6422;49.938;9.124;2024-03-02T12:14:36;3.50;;;1.23;;
12715;SDS011;6422;49.938;9.124;2024-03-02T12:17:02;3.63;;;1.07;;
12715;SDS011;6422;49.938;9.124;2024-03-02T12:19:29;1.53;;;1.03;;
12715;SDS011;6422;49.938;9.124;2024-03-02T12:21:55;2.07;;;1.07;;
12715;SDS011;6422;49.938;9.124;2024-03-02T12:24:21;2.00;;;1.30;;
12715;SDS011;6422;49.938;9.124;2024-03-02T12:26:46;1.50;;;1.10;;
12715;SDS011;6422;49.938;9.124;2024-03-02T12:29:13;2.43;;;1.43;;
12715;SDS011;6422;49.938;9.124;2024-03-02T12:31:38;5.67;;;1.33;;
12715;SDS011;6422;49.938;9.124;2024-03-02T12:34:03;2.70;;;1.23;;
12715;SDS011;6422;49.938;9.124;2024-03-02T12:36:29;1.60;;;1.10;;
12715;SDS011;6422;49.938;9.124;2024-03-02T12:38:54;1.40;;;0.90;;
12715;SDS011;6422;49.938;9.124;2024-03-02T12:41:19;1.40;;;0.90;;
12715;SDS011;6422;49.938;9.124;2024-03-02T12:43:45;2.23;;;1.13;;
12715;SDS011;6422;49.938;9.124;2024-03-02T12:46:10;1.25;;;0.90;;
12715;SDS011;6422;49.938;9.124;2024-03-02T12:48:35;1.60;;;1.10;;
12715;SDS011;6422;49.938;9.124;2024-03-02T12:51:01;3.60;;;1.20;;
12715;SDS011;6422;49.938;9.124;2024-03-02T12:53:26;2.80;;;1.00;;
12715;SDS011;6422;49.938;9.124;2024-03-02T12:55:52;2.40;;;1.07;;
12715;SDS011;6422;49.938;9.124;2024-03-02T12:58:21;2.40;;;1.10;;
12715;SDS011;6422;49.938;9.124;2024-03-02T13:00:46;1.33;;;0.90;;
12715;SDS011;6422;49.938;9.124;2024-03-02T13:03:12;1.17;;;0.70;;
12715;SDS011;6422;49.938;9.124;2024-03-02T13:05:38;1.37;;;0.80;;
12715;SDS011;6422;49.938;9.124;2024-03-02T13:08:03;1.50;;;1.00;;
12715;SDS011;6422;49.938;9.124;2024-03-02T13:10:29;1.00;;;0.60;;
12715;SDS011;6422;49.938;9.124;2024-03-02T13:12:55;1.10;;;0.60;;
12715;SDS011;6422;49.938;9.124;2024-03-02T13:15:21;2.20;;;1.20;;
12715;SDS011;6422;49.938;9.124;2024-03-02T13:17:46;1.40;;;0.70;;
12715;SDS011;6422;49.938;9.124;2024-03-02T13:20:11;1.33;;;0.77;;
12715;SDS011;6422;49.938;9.124;2024-03-02T13:22:36;2.27;;;1.10;;
12715;SDS011;6422;49.938;9.124;2024-03-02T13:25:01;1.30;;;0.80;;
12715;SDS011;6422;49.938;9.124;2024-03-02T13:27:28;1.97;;;0.90;;
12715;SDS011;6422;49.938;9.124;2024-03-02T13:29:54;1.57;;;0.80;;
12715;SDS011;6422;49.938;9.124;2024-03-02T13:32:19;1.07;;;0.60;;
12715;SDS011;6422;49.938;9.124;2024-03-02T13:34:48;1.43;;;0.60;;
12715;SDS011;6422;49.938;9.124;2024-03-02T13:37:13;2.07;;;0.80;;
12715;SDS011;6422;49.938;9.124;2024-03-02T13:39:39;1.38;;;0.88;;
12715;SDS011;6422;49.938;9.124;2024-03-02T13:42:10;1.77;;;1.20;;
12715;SDS011;6422;49.938;9.124;2024-03-02T13:44:36;1.57;;;0.90;;
12715;SDS011;6422;49.938;9.124;2024-03-02T13:47:02;2.87;;;1.30;;
12715;SDS011;6422;49.938;9.124;2024-03-02T13:49:27;2.57;;;1.00;;
12715;SDS011;6422;49.938;9.124;2024-03-02T13:51:58;9.97;;;2.10;;
12715;SDS011;6422;49.938;9.124;2024-03-02T13:54:25;1.13;;;0.60;;
12715;SDS011;6422;49.938;9.124;2024-03-02T13:56:51;1.80;;;0.67;;
12715;SDS011;6422;49.938;9.124;2024-03-02T13:59:16;3.30;;;1.00;;
12715;SDS011;6422;49.938;9.124;2024-03-02T14:01:42;2.30;;;1.13;;
12715;SDS011;6422;49.938;9.124;2024-03-02T14:04:07;1.53;;;0.70;;
12715;SDS011;6422;49.938;9.124;2024-03-02T14:06:32;1.63;;;0.80;;
12715;SDS011;6422;49.938;9.124;2024-03-02T14:08:57;1.85;;;0.85;;
12715;SDS011;6422;49.938;9.124;2024-03-02T14:11:22;1.67;;;0.80;;
12715;SDS011;6422;49.938;9.124;2024-03-02T14:13:47;2.03;;;0.77;;
12715;SDS011;6422;49.938;9.124;2024-03-02T14:16:18;1.53;;;0.90;;
12715;SDS011;6422;49.938;9.124;2024-03-02T14:18:43;4.57;;;1.08;;
12715;SDS011;6422;49.938;9.124;2024-03-02T14:21:09;2.13;;;1.17;;
12715;SDS011;6422;49.938;9.124;2024-03-02T14:23:34;2.30;;;1.00;;
12715;SDS011;6422;49.938;9.124;2024-03-02T14:25:59;1.35;;;0.75;;
12715;SDS011;6422;49.938;9.124;2024-03-02T14:28:24;6.20;;;1.17;;
12715;SDS011;6422;49.938;9.124;2024-03-02T14:30:49;3.37;;;1.07;;
12715;SDS011;6422;49.938;9.124;2024-03-02T14:33:15;1.60;;;0.97;;
12715;SDS011;6422;49.938;9.124;2024-03-02T14:35:41;23.90;;;1.50;;
12715;SDS011;6422;49.938;9.124;2024-03-02T14:38:06;3.10;;;0.77;;
12715;SDS011;6422;49.938;9.124;2024-03-02T14:40:31;5.13;;;2.80;;
12715;SDS011;6422;49.938;9.124;2024-03-02T14:42:56;1.50;;;1.10;;
12715;SDS011;6422;49.938;9.124;2024-03-02T14:45:22;1.95;;;1.23;;
12715;SDS011;6422;49.938;9.124;2024-03-02T14:47:48;2.33;;;1.50;;
12715;SDS011;6422;49.938;9.124;2024-03-02T14:50:13;11.10;;;5.43;;
12715;SDS011;6422;49.938;9.124;2024-03-02T14:52:41;5.50;;;2.33;;
12715;SDS011;6422;49.938;9.124;2024-03-02T14:55:06;4.60;;;2.03;;
12715;SDS011;6422;49.938;9.124;2024-03-02T14:57:32;3.53;;;2.10;;
12715;SDS011;6422;49.938;9.124;2024-03-02T14:59:57;5.88;;;2.78;;
12715;SDS011;6422;49.938;9.124;2024-03-02T15:02:23;3.85;;;1.80;;
12715;SDS011;6422;49.938;9.124;2024-03-02T15:04:48;2.92;;;1.45;;
12715;SDS011;6422;49.938;9.124;2024-03-02T15:07:13;3.40;;;1.30;;